createdAt,value
2017-08-25T00:00:08.256Z,1007.9
2017-08-25T00:01:09.873Z,1007.9
2017-08-25T00:02:11.480Z,1007.9
2017-08-25T00:03:13.094Z,1007.9
2017-08-25T00:04:14.711Z,1007.9
2017-08-25T00:05:16.327Z,1007.9
2017-08-25T00:06:17.945Z,1007.9
2017-08-25T00:07:19.552Z,1007.9
2017-08-25T00:08:21.162Z,1007.9
2017-08-25T00:09:22.774Z,1007.9
2017-08-25T00:10:24.391Z,1007.9
2017-08-25T00:11:26.007Z,1007.8
2017-08-25T00:12:27.616Z,1007.8
2017-08-25T00:13:29.229Z,1007.9
2017-08-25T00:14:30.846Z,1007.8
2017-08-25T00:15:32.455Z,1007.8
2017-08-25T00:16:34.063Z,1007.8
2017-08-25T00:17:35.675Z,1007.8
2017-08-25T00:18:37.292Z,1007.8
2017-08-25T00:19:38.906Z,1007.8
2017-08-25T00:20:40.518Z,1007.9
2017-08-25T00:21:42.128Z,1007.8
2017-08-25T00:22:43.744Z,1007.9
2017-08-25T00:23:45.352Z,1007.9
2017-08-25T00:24:46.964Z,1007.9
2017-08-25T00:25:48.578Z,1007.9
2017-08-25T00:26:50.193Z,1007.9
2017-08-25T00:27:51.811Z,1007.9
2017-08-25T00:28:53.421Z,1007.9
2017-08-25T00:29:55.031Z,1007.9
2017-08-25T00:30:56.650Z,1007.9
2017-08-25T00:31:58.264Z,1007.9
2017-08-25T00:32:59.876Z,1007.9
2017-08-25T00:34:01.488Z,1007.9
2017-08-25T00:35:03.113Z,1007.9
2017-08-25T00:36:04.722Z,1007.9
2017-08-25T00:37:06.330Z,1007.9
2017-08-25T00:38:07.940Z,1007.9
2017-08-25T00:39:09.554Z,1007.9
2017-08-25T00:40:11.163Z,1007.9
2017-08-25T00:41:12.783Z,1007.9
2017-08-25T00:42:14.399Z,1007.9
2017-08-25T00:43:16.006Z,1007.9
2017-08-25T00:44:17.618Z,1007.9
2017-08-25T00:45:19.231Z,1007.9
2017-08-25T00:46:20.847Z,1007.9
2017-08-25T00:47:22.461Z,1007.9
2017-08-25T00:48:24.076Z,1007.9
2017-08-25T00:49:25.689Z,1007.9
2017-08-25T00:50:27.299Z,1007.9
2017-08-25T00:51:28.916Z,1007.9
2017-08-25T00:52:30.531Z,1007.9
2017-08-25T00:53:32.138Z,1007.9
2017-08-25T00:54:33.753Z,1008.0
2017-08-25T00:55:35.369Z,1007.9
2017-08-25T00:56:36.987Z,1007.9
2017-08-25T00:57:38.594Z,1007.9
2017-08-25T00:58:40.205Z,1007.9
2017-08-25T00:59:41.820Z,1007.9
2017-08-25T01:00:43.436Z,1007.9
2017-08-25T01:01:45.046Z,1007.9
2017-08-25T01:02:46.657Z,1007.9
2017-08-25T01:03:48.270Z,1007.9
2017-08-25T01:04:49.886Z,1007.9
2017-08-25T01:05:51.498Z,1008.0
2017-08-25T01:06:53.121Z,1008.0
2017-08-25T01:07:54.725Z,1008.0
2017-08-25T01:08:56.364Z,1008.0
2017-08-25T01:09:57.957Z,1008.0
2017-08-25T01:10:59.572Z,1007.9
2017-08-25T01:12:01.188Z,1008.0
2017-08-25T01:13:02.793Z,1008.0
2017-08-25T01:14:04.433Z,1008.0
2017-08-25T01:15:06.019Z,1008.0
2017-08-25T01:16:07.637Z,1008.0
2017-08-25T01:17:09.251Z,1008.0
2017-08-25T01:18:10.861Z,1008.0
2017-08-25T01:19:12.471Z,1008.1
2017-08-25T01:20:14.079Z,1008.0
2017-08-25T01:21:15.691Z,1008.1
2017-08-25T01:22:17.308Z,1008.1
2017-08-25T01:23:18.924Z,1008.0
2017-08-25T01:24:20.534Z,1008.0
2017-08-25T01:25:22.147Z,1008.1
2017-08-25T01:26:23.762Z,1008.0
2017-08-25T01:27:25.376Z,1008.0
2017-08-25T01:28:26.986Z,1008.1
2017-08-25T01:29:28.598Z,1008.1
2017-08-25T01:30:30.216Z,1008.1
2017-08-25T01:31:31.833Z,1008.1
2017-08-25T01:32:33.444Z,1008.1
2017-08-25T01:33:35.053Z,1008.1
2017-08-25T01:34:36.667Z,1008.1
2017-08-25T01:35:38.282Z,1008.0
2017-08-25T01:36:39.891Z,1008.1
2017-08-25T01:37:41.502Z,1008.1
2017-08-25T01:38:43.121Z,1008.1
2017-08-25T01:39:44.738Z,1008.0
2017-08-25T01:40:46.346Z,1008.1
2017-08-25T01:41:47.957Z,1008.0
2017-08-25T01:42:49.570Z,1008.1
2017-08-25T01:43:51.179Z,1008.1
2017-08-25T01:44:52.796Z,1008.1
2017-08-25T01:45:54.413Z,1008.1
2017-08-25T01:46:56.022Z,1008.0
2017-08-25T01:47:57.630Z,1008.1
2017-08-25T01:48:59.245Z,1008.0
2017-08-25T01:50:00.852Z,1008.0
2017-08-25T01:51:02.462Z,1008.0
2017-08-25T01:52:04.079Z,1008.0
2017-08-25T01:53:05.694Z,1008.0
2017-08-25T01:54:07.308Z,1008.0
2017-08-25T01:55:08.916Z,1008.1
2017-08-25T01:56:10.525Z,1008.0
2017-08-25T01:57:12.140Z,1008.0
2017-08-25T01:58:13.751Z,1008.0
2017-08-25T01:59:15.371Z,1008.0
2017-08-25T02:00:16.994Z,1008.0
2017-08-25T02:01:18.613Z,1008.0
2017-08-25T02:02:20.226Z,1008.0
2017-08-25T02:03:21.839Z,1008.1
2017-08-25T02:04:23.464Z,1008.1
2017-08-25T02:05:25.082Z,1008.1
2017-08-25T02:06:26.695Z,1008.0
2017-08-25T02:07:28.318Z,1008.1
2017-08-25T02:08:29.931Z,1008.0
2017-08-25T02:09:31.550Z,1008.1
2017-08-25T02:10:33.162Z,1008.0
2017-08-25T02:11:34.775Z,1008.0
2017-08-25T02:12:36.401Z,1008.0
2017-08-25T02:13:38.019Z,1008.0
2017-08-25T02:14:39.630Z,1008.0
2017-08-25T02:15:41.247Z,1008.0
2017-08-25T02:16:42.868Z,1008.0
2017-08-25T02:17:44.493Z,1008.0
2017-08-25T02:18:46.108Z,1008.0
2017-08-25T02:19:47.719Z,1008.0
2017-08-25T02:20:49.341Z,1008.0
2017-08-25T02:21:50.952Z,1008.0
2017-08-25T02:22:52.569Z,1008.0
2017-08-25T02:23:54.186Z,1008.0
2017-08-25T02:24:55.808Z,1008.0
2017-08-25T02:25:57.452Z,1008.0
2017-08-25T02:26:59.047Z,1008.0
2017-08-25T02:28:00.664Z,1008.0
2017-08-25T02:29:02.284Z,1008.0
2017-08-25T02:30:03.904Z,1008.0
2017-08-25T02:31:05.516Z,1008.0
2017-08-25T02:32:07.138Z,1008.0
2017-08-25T02:33:08.756Z,1008.0
2017-08-25T02:34:10.374Z,1008.0
2017-08-25T02:35:11.989Z,1007.9
2017-08-25T02:36:13.603Z,1008.0
2017-08-25T02:37:15.231Z,1008.0
2017-08-25T02:38:16.854Z,1008.0
2017-08-25T02:39:18.464Z,1008.0
2017-08-25T02:40:20.079Z,1007.9
2017-08-25T02:41:21.697Z,1008.0
2017-08-25T02:42:23.308Z,1007.9
2017-08-25T02:43:24.937Z,1007.9
2017-08-25T02:44:26.556Z,1007.9
2017-08-25T02:45:28.166Z,1007.9
2017-08-25T02:46:29.785Z,1007.9
2017-08-25T02:47:31.404Z,1007.9
2017-08-25T02:48:33.029Z,1007.9
2017-08-25T02:49:34.641Z,1008.0
2017-08-25T02:50:36.256Z,1007.9
2017-08-25T02:51:37.878Z,1008.0
2017-08-25T02:52:39.499Z,1008.0
2017-08-25T02:53:41.108Z,1008.0
2017-08-25T02:54:42.730Z,1008.0
2017-08-25T02:55:44.341Z,1008.0
2017-08-25T02:56:45.957Z,1007.9
2017-08-25T02:57:47.585Z,1007.9
2017-08-25T02:58:49.217Z,1007.9
2017-08-25T02:59:50.834Z,1007.9
2017-08-25T03:00:52.457Z,1007.9
2017-08-25T03:01:54.069Z,1007.9
2017-08-25T03:02:55.682Z,1007.9
2017-08-25T03:03:57.307Z,1007.9
2017-08-25T03:04:58.933Z,1007.9
2017-08-25T03:06:00.540Z,1007.9
2017-08-25T03:07:02.166Z,1007.9
2017-08-25T03:08:03.792Z,1007.9
2017-08-25T03:09:05.408Z,1007.9
2017-08-25T03:10:07.030Z,1007.9
2017-08-25T03:11:08.652Z,1007.9
2017-08-25T03:12:10.264Z,1007.9
2017-08-25T03:13:11.887Z,1007.9
2017-08-25T03:14:13.500Z,1007.9
2017-08-25T03:15:15.109Z,1007.9
2017-08-25T03:16:16.736Z,1007.9
2017-08-25T03:17:18.353Z,1007.9
2017-08-25T03:18:19.968Z,1007.8
2017-08-25T03:19:21.595Z,1007.8
2017-08-25T03:20:23.217Z,1007.9
2017-08-25T03:21:24.837Z,1007.9
2017-08-25T03:22:26.448Z,1007.9
2017-08-25T03:23:28.065Z,1007.8
2017-08-25T03:24:29.683Z,1007.8
2017-08-25T03:25:31.307Z,1007.8
2017-08-25T03:26:32.922Z,1007.8
2017-08-25T03:27:34.542Z,1007.8
2017-08-25T03:28:36.165Z,1007.8
2017-08-25T03:29:37.776Z,1007.8
2017-08-25T03:30:39.392Z,1007.8
2017-08-25T03:31:41.006Z,1007.8
2017-08-25T03:32:42.626Z,1007.8
2017-08-25T03:33:44.253Z,1007.8
2017-08-25T03:34:45.865Z,1007.8
2017-08-25T03:35:47.475Z,1007.8
2017-08-25T03:36:49.098Z,1007.9
2017-08-25T03:37:50.715Z,1007.9
2017-08-25T03:38:52.328Z,1007.9
2017-08-25T03:39:53.943Z,1007.9
2017-08-25T03:40:55.570Z,1007.9
2017-08-25T03:41:57.189Z,1007.9
2017-08-25T03:42:58.801Z,1007.9
2017-08-25T03:44:00.416Z,1007.9
2017-08-25T03:45:02.036Z,1007.9
2017-08-25T03:46:03.659Z,1007.9
2017-08-25T03:47:05.274Z,1007.9
2017-08-25T03:48:06.892Z,1007.9
2017-08-25T03:49:08.507Z,1007.9
2017-08-25T03:50:10.128Z,1007.9
2017-08-25T03:51:11.745Z,1007.8
2017-08-25T03:52:13.362Z,1007.9
2017-08-25T03:53:14.974Z,1007.9
2017-08-25T03:54:16.589Z,1007.9
2017-08-25T03:55:18.213Z,1007.9
2017-08-25T03:56:19.828Z,1007.9
2017-08-25T03:57:21.443Z,1007.9
2017-08-25T03:58:23.059Z,1007.9
2017-08-25T03:59:24.681Z,1007.9
2017-08-25T04:00:26.306Z,1007.9
2017-08-25T04:01:27.919Z,1008.0
2017-08-25T04:02:29.535Z,1008.0
2017-08-25T04:03:31.156Z,1008.0
2017-08-25T04:04:32.770Z,1008.0
2017-08-25T04:05:34.384Z,1008.0
2017-08-25T04:06:35.998Z,1008.0
2017-08-25T04:07:37.623Z,1008.1
2017-08-25T04:08:39.247Z,1008.0
2017-08-25T04:09:40.861Z,1008.0
2017-08-25T04:10:42.476Z,1008.0
2017-08-25T04:11:44.096Z,1008.0
2017-08-25T04:12:45.717Z,1008.1
2017-08-25T04:13:47.330Z,1008.0
2017-08-25T04:14:48.954Z,1008.1
2017-08-25T04:15:50.581Z,1008.0
2017-08-25T04:16:52.193Z,1008.0
2017-08-25T04:17:53.809Z,1008.0
2017-08-25T04:18:55.428Z,1008.0
2017-08-25T04:19:57.047Z,1008.0
2017-08-25T04:20:58.664Z,1008.0
2017-08-25T04:22:00.281Z,1008.0
2017-08-25T04:23:01.906Z,1008.0
2017-08-25T04:24:03.525Z,1008.0
2017-08-25T04:25:05.144Z,1008.0
2017-08-25T04:26:06.756Z,1008.0
2017-08-25T04:27:08.367Z,1008.0
2017-08-25T04:28:09.999Z,1008.0
2017-08-25T04:29:11.612Z,1008.1
2017-08-25T04:30:13.227Z,1008.1
2017-08-25T04:31:14.845Z,1008.1
2017-08-25T04:32:16.476Z,1008.1
2017-08-25T04:33:18.102Z,1008.1
2017-08-25T04:34:19.721Z,1008.1
2017-08-25T04:35:21.338Z,1008.1
2017-08-25T04:36:22.952Z,1008.2
2017-08-25T04:37:24.571Z,1008.2
2017-08-25T04:38:26.189Z,1008.2
2017-08-25T04:39:27.812Z,1008.2
2017-08-25T04:40:29.440Z,1008.2
2017-08-25T04:41:31.061Z,1008.2
2017-08-25T04:42:32.679Z,1008.2
2017-08-25T04:43:34.293Z,1008.1
2017-08-25T04:44:35.918Z,1008.2
2017-08-25T04:45:37.545Z,1008.1
2017-08-25T04:46:39.163Z,1008.1
2017-08-25T04:47:40.789Z,1008.1
2017-08-25T04:48:42.401Z,1008.1
2017-08-25T04:49:44.021Z,1008.1
2017-08-25T04:50:45.648Z,1008.1
2017-08-25T04:51:47.262Z,1008.2
2017-08-25T04:52:48.880Z,1008.1
2017-08-25T04:53:50.512Z,1008.1
2017-08-25T04:54:52.136Z,1008.1
2017-08-25T04:55:53.747Z,1008.1
2017-08-25T04:56:55.365Z,1008.1
2017-08-25T04:57:56.981Z,1008.1
2017-08-25T04:58:58.612Z,1008.2
2017-08-25T05:00:00.241Z,1008.2
2017-08-25T05:01:01.854Z,1008.2
2017-08-25T05:02:03.479Z,1008.2
2017-08-25T05:03:05.105Z,1008.2
2017-08-25T05:04:06.721Z,1008.2
2017-08-25T05:05:08.342Z,1008.2
2017-08-25T05:06:09.965Z,1008.2
2017-08-25T05:07:11.590Z,1008.2
2017-08-25T05:08:13.220Z,1008.2
2017-08-25T05:09:14.836Z,1008.2
2017-08-25T05:10:16.455Z,1008.2
2017-08-25T05:11:18.087Z,1008.3
2017-08-25T05:12:19.706Z,1008.3
2017-08-25T05:13:21.324Z,1008.3
2017-08-25T05:14:22.949Z,1008.3
2017-08-25T05:15:24.574Z,1008.3
2017-08-25T05:16:26.199Z,1008.3
2017-08-25T05:17:27.817Z,1008.3
2017-08-25T05:18:29.438Z,1008.3
2017-08-25T05:19:31.063Z,1008.3
2017-08-25T05:20:32.683Z,1008.3
2017-08-25T05:21:34.394Z,1008.3
2017-08-25T05:22:36.012Z,1008.3
2017-08-25T05:23:37.645Z,1008.3
2017-08-25T05:24:39.264Z,1008.3
2017-08-25T05:25:40.883Z,1008.3
2017-08-25T05:26:42.513Z,1008.3
2017-08-25T05:27:44.137Z,1008.3
2017-08-25T05:28:45.757Z,1008.3
2017-08-25T05:29:47.379Z,1008.3
2017-08-25T05:30:48.996Z,1008.3
2017-08-25T05:31:50.624Z,1008.2
2017-08-25T05:32:52.246Z,1008.2
2017-08-25T05:33:53.868Z,1008.2
2017-08-25T05:34:55.485Z,1008.3
2017-08-25T05:35:57.117Z,1008.3
2017-08-25T05:36:58.743Z,1008.3
2017-08-25T05:38:00.359Z,1008.2
2017-08-25T05:39:01.981Z,1008.2
2017-08-25T05:40:03.600Z,1008.2
2017-08-25T05:41:05.232Z,1008.2
2017-08-25T05:42:06.930Z,1008.2
2017-08-25T05:43:08.554Z,1008.3
2017-08-25T05:44:10.188Z,1008.3
2017-08-25T05:45:12.218Z,1008.3
2017-08-25T05:46:13.818Z,1008.3
2017-08-25T05:47:15.441Z,1008.3
2017-08-25T05:48:17.059Z,1008.3
2017-08-25T05:49:18.692Z,1008.3
2017-08-25T05:50:20.310Z,1008.3
2017-08-25T05:51:21.934Z,1008.4
2017-08-25T05:52:23.559Z,1008.4
2017-08-25T05:53:25.188Z,1008.4
2017-08-25T05:54:26.806Z,1008.4
2017-08-25T05:55:28.424Z,1008.4
2017-08-25T05:56:30.351Z,1008.4
2017-08-25T05:57:31.968Z,1008.5
2017-08-25T05:58:33.599Z,1008.4
2017-08-25T05:59:35.215Z,1008.4
2017-08-25T06:00:36.849Z,1008.5
2017-08-25T06:01:38.476Z,1008.4
2017-08-25T06:02:40.093Z,1008.4
2017-08-25T06:03:41.716Z,1008.4
2017-08-25T06:04:43.345Z,1008.3
2017-08-25T06:05:44.971Z,1008.3
2017-08-25T06:06:46.589Z,1008.3
2017-08-25T06:07:48.209Z,1008.3
2017-08-25T06:08:49.839Z,1008.3
2017-08-25T06:09:51.467Z,1008.3
2017-08-25T06:10:53.089Z,1008.3
2017-08-25T06:11:54.712Z,1008.3
2017-08-25T06:12:56.341Z,1008.4
2017-08-25T06:13:57.972Z,1008.4
2017-08-25T06:14:59.588Z,1008.4
2017-08-25T06:16:01.205Z,1008.4
2017-08-25T06:17:02.838Z,1008.4
2017-08-25T06:18:04.463Z,1008.4
2017-08-25T06:19:06.081Z,1008.4
2017-08-25T06:20:07.707Z,1008.4
2017-08-25T06:21:09.333Z,1008.5
2017-08-25T06:22:10.961Z,1008.5
2017-08-25T06:23:12.578Z,1008.5
2017-08-25T06:24:14.200Z,1008.5
2017-08-25T06:25:15.827Z,1008.4
2017-08-25T06:26:17.457Z,1008.5
2017-08-25T06:27:19.083Z,1008.5
2017-08-25T06:28:20.702Z,1008.6
2017-08-25T06:29:22.332Z,1008.6
2017-08-25T06:30:23.955Z,1008.6
2017-08-25T06:31:25.574Z,1008.6
2017-08-25T06:32:27.197Z,1008.6
2017-08-25T06:33:28.824Z,1008.6
2017-08-25T06:34:30.480Z,1008.6
2017-08-25T06:35:32.097Z,1008.6
2017-08-25T06:36:33.717Z,1008.7
2017-08-25T06:37:35.348Z,1008.8
2017-08-25T06:38:36.975Z,1008.8
2017-08-25T06:39:38.600Z,1008.8
2017-08-25T06:40:40.224Z,1009.0
2017-08-25T06:41:42.260Z,1009.0
2017-08-25T06:42:43.891Z,1009.0
2017-08-25T06:43:45.515Z,1009.0
2017-08-25T06:44:47.139Z,1008.9
2017-08-25T06:45:48.761Z,1008.8
2017-08-25T06:46:50.402Z,1008.8
2017-08-25T06:47:52.030Z,1008.7
2017-08-25T06:48:53.654Z,1008.7
2017-08-25T06:49:55.285Z,1008.7
2017-08-25T06:50:56.912Z,1008.8
2017-08-25T06:51:58.534Z,1008.8
2017-08-25T06:53:00.162Z,1008.9
2017-08-25T06:54:01.792Z,1008.9
2017-08-25T06:55:03.424Z,1008.9
2017-08-25T06:56:05.048Z,1009.1
2017-08-25T06:57:06.670Z,1008.9
2017-08-25T06:58:08.303Z,1009.1
2017-08-25T06:59:09.933Z,1008.8
2017-08-25T07:00:11.554Z,1008.9
2017-08-25T07:01:13.185Z,1009.1
2017-08-25T07:02:14.815Z,1009.3
2017-08-25T07:03:16.438Z,1009.4
2017-08-25T07:04:18.073Z,1009.1
2017-08-25T07:05:19.705Z,1009.1
2017-08-25T07:06:21.328Z,1009.1
2017-08-25T07:07:22.954Z,1009.2
2017-08-25T07:08:24.587Z,1009.2
2017-08-25T07:09:26.218Z,1009.3
2017-08-25T07:10:27.843Z,1009.4
2017-08-25T07:11:29.467Z,1009.5
2017-08-25T07:12:31.124Z,1009.5
2017-08-25T07:13:32.732Z,1009.5
2017-08-25T07:14:34.358Z,1009.4
2017-08-25T07:15:35.988Z,1009.5
2017-08-25T07:16:37.626Z,1009.6
2017-08-25T07:17:39.265Z,1009.7
2017-08-25T07:18:40.889Z,1009.5
2017-08-25T07:19:42.516Z,1009.7
2017-08-25T07:20:44.152Z,1009.6
2017-08-25T07:21:45.783Z,1009.5
2017-08-25T07:22:47.410Z,1009.4
2017-08-25T07:23:49.040Z,1009.4
2017-08-25T07:24:50.684Z,1009.6
2017-08-25T07:25:52.322Z,1009.5
2017-08-25T07:26:53.951Z,1009.5
2017-08-25T07:27:55.583Z,1009.4
2017-08-25T07:28:57.219Z,1009.3
2017-08-25T07:29:58.860Z,1009.5
2017-08-25T07:31:00.483Z,1009.6
2017-08-25T07:32:02.118Z,1009.5
2017-08-25T07:33:03.753Z,1009.6
2017-08-25T07:34:05.383Z,1009.5
2017-08-25T07:35:07.014Z,1009.6
2017-08-25T07:36:08.643Z,1009.7
2017-08-25T07:37:10.287Z,1009.6
2017-08-25T07:38:11.932Z,1009.7
2017-08-25T07:39:13.563Z,1009.6
2017-08-25T07:40:15.195Z,1009.5
2017-08-25T07:41:16.828Z,1009.6
2017-08-25T07:42:18.464Z,1009.7
2017-08-25T07:43:20.096Z,1009.7
2017-08-25T07:44:21.729Z,1009.8
2017-08-25T07:45:23.372Z,1009.6
2017-08-25T07:46:25.012Z,1009.5
2017-08-25T07:47:26.642Z,1009.5
2017-08-25T07:48:28.276Z,1009.5
2017-08-25T07:49:29.921Z,1009.4
2017-08-25T07:50:31.564Z,1009.4
2017-08-25T07:51:33.200Z,1009.5
2017-08-25T07:52:34.835Z,1009.4
2017-08-25T07:53:36.471Z,1009.5
2017-08-25T07:54:38.106Z,1009.5
2017-08-25T07:55:39.740Z,1009.6
2017-08-25T07:56:41.376Z,1009.7
2017-08-25T07:57:43.017Z,1009.6
2017-08-25T07:58:44.661Z,1009.4
2017-08-25T07:59:46.292Z,1009.6
2017-08-25T08:00:47.930Z,1009.5
2017-08-25T08:01:49.568Z,1009.6
2017-08-25T08:02:51.210Z,1009.6
2017-08-25T08:03:52.841Z,1009.6
2017-08-25T08:04:54.479Z,1009.5
2017-08-25T08:05:56.121Z,1009.4
2017-08-25T08:06:57.754Z,1009.5
2017-08-25T08:07:59.401Z,1009.5
2017-08-25T08:09:01.039Z,1009.4
2017-08-25T08:10:02.670Z,1009.4
2017-08-25T08:11:04.309Z,1009.4
2017-08-25T08:12:05.956Z,1009.5
2017-08-25T08:13:07.586Z,1009.5
2017-08-25T08:14:09.220Z,1009.4
2017-08-25T08:15:10.858Z,1009.4
2017-08-25T08:16:12.504Z,1009.5
2017-08-25T08:17:14.144Z,1009.6
2017-08-25T08:18:15.775Z,1009.6
2017-08-25T08:19:17.438Z,1009.6
2017-08-25T08:20:19.060Z,1009.5
2017-08-25T08:21:20.695Z,1009.5
2017-08-25T08:22:22.332Z,1009.4
2017-08-25T08:23:23.969Z,1009.5
2017-08-25T08:24:25.609Z,1009.5
2017-08-25T08:25:27.257Z,1009.5
2017-08-25T08:26:28.891Z,1009.5
2017-08-25T08:27:30.527Z,1009.5
2017-08-25T08:28:32.174Z,1009.5
2017-08-25T08:29:33.816Z,1009.4
2017-08-25T08:30:35.447Z,1009.4
2017-08-25T08:31:37.087Z,1009.4
2017-08-25T08:32:38.728Z,1009.4
2017-08-25T08:33:40.370Z,1009.4
2017-08-25T08:34:42.006Z,1009.4
2017-08-25T08:35:43.643Z,1009.3
2017-08-25T08:36:45.288Z,1009.4
2017-08-25T08:37:46.921Z,1009.4
2017-08-25T08:38:48.555Z,1009.3
2017-08-25T08:39:50.189Z,1009.3
2017-08-25T08:40:51.842Z,1009.2
2017-08-25T08:41:53.483Z,1009.3
2017-08-25T08:42:55.121Z,1009.3
2017-08-25T08:43:56.762Z,1009.2
2017-08-25T08:44:58.393Z,1009.3
2017-08-25T08:46:00.039Z,1009.3
2017-08-25T08:47:01.679Z,1009.3
2017-08-25T08:48:03.313Z,1009.4
2017-08-25T08:49:04.949Z,1009.4
2017-08-25T08:50:06.593Z,1009.3
2017-08-25T08:51:08.239Z,1009.3
2017-08-25T08:52:09.872Z,1009.3
2017-08-25T08:53:11.509Z,1009.3
2017-08-25T08:54:13.151Z,1009.2
2017-08-25T08:55:14.795Z,1009.2
2017-08-25T08:56:16.431Z,1009.2
2017-08-25T08:57:18.070Z,1009.4
2017-08-25T08:58:19.722Z,1009.4
2017-08-25T08:59:21.372Z,1009.4
2017-08-25T09:00:23.003Z,1009.4
2017-08-25T09:01:24.639Z,1009.5
2017-08-25T09:02:26.285Z,1009.4
2017-08-25T09:03:27.925Z,1009.4
2017-08-25T09:04:29.564Z,1009.3
2017-08-25T09:05:31.200Z,1009.4
2017-08-25T09:06:33.320Z,1009.4
2017-08-25T09:07:34.961Z,1009.4
2017-08-25T09:08:36.599Z,1009.4
2017-08-25T09:09:38.233Z,1009.4
2017-08-25T09:10:39.882Z,1009.4
2017-08-25T09:11:41.523Z,1009.4
2017-08-25T09:12:43.160Z,1009.3
2017-08-25T09:13:44.795Z,1009.4
2017-08-25T09:14:46.437Z,1009.4
2017-08-25T09:15:48.089Z,1009.4
2017-08-25T09:16:49.728Z,1009.4
2017-08-25T09:17:51.366Z,1009.4
2017-08-25T09:18:53.014Z,1009.3
2017-08-25T09:19:54.657Z,1009.4
2017-08-25T09:20:56.296Z,1009.3
2017-08-25T09:21:57.931Z,1009.3
2017-08-25T09:22:59.568Z,1009.3
2017-08-25T09:24:01.218Z,1009.3
2017-08-25T09:25:02.865Z,1009.3
2017-08-25T09:26:04.501Z,1009.3
2017-08-25T09:27:06.144Z,1009.3
2017-08-25T09:28:07.789Z,1009.3
2017-08-25T09:29:09.432Z,1009.3
2017-08-25T09:30:11.072Z,1009.3
2017-08-25T09:31:12.714Z,1009.3
2017-08-25T09:32:14.359Z,1009.3
2017-08-25T09:33:15.998Z,1009.2
2017-08-25T09:34:17.640Z,1009.2
2017-08-25T09:35:19.276Z,1009.2
2017-08-25T09:36:20.925Z,1009.2
2017-08-25T09:37:22.572Z,1009.2
2017-08-25T09:38:24.209Z,1009.2
2017-08-25T09:39:25.849Z,1009.2
2017-08-25T09:40:27.493Z,1009.2
2017-08-25T09:41:29.143Z,1009.2
2017-08-25T09:42:30.780Z,1009.2
2017-08-25T09:43:32.418Z,1009.2
2017-08-25T09:44:34.061Z,1009.1
2017-08-25T09:45:35.701Z,1009.1
2017-08-25T09:46:37.339Z,1009.1
2017-08-25T09:47:38.980Z,1009.1
2017-08-25T09:48:40.633Z,1009.1
2017-08-25T09:49:42.279Z,1009.1
2017-08-25T09:50:43.920Z,1009.1
2017-08-25T09:51:45.558Z,1009.1
2017-08-25T09:52:47.196Z,1009.1
2017-08-25T09:53:48.841Z,1009.1
2017-08-25T09:54:50.502Z,1009.0
2017-08-25T09:55:52.127Z,1009.0
2017-08-25T09:56:53.765Z,1009.0
2017-08-25T09:57:55.409Z,1009.0
2017-08-25T09:58:57.057Z,1009.0
2017-08-25T09:59:58.693Z,1009.0
2017-08-25T10:01:00.332Z,1009.0
2017-08-25T10:02:01.985Z,1009.0
2017-08-25T10:03:03.632Z,1009.0
2017-08-25T10:04:05.264Z,1009.0
2017-08-25T10:05:06.905Z,1009.0
2017-08-25T10:06:08.547Z,1009.0
2017-08-25T10:07:10.194Z,1009.0
2017-08-25T10:08:11.832Z,1009.0
2017-08-25T10:09:13.474Z,1009.0
2017-08-25T10:10:15.126Z,1009.0
2017-08-25T10:11:16.769Z,1009.0
2017-08-25T10:12:18.406Z,1009.0
2017-08-25T10:13:20.045Z,1009.0
2017-08-25T10:14:21.693Z,1008.9
2017-08-25T10:15:23.338Z,1009.0
2017-08-25T10:16:24.978Z,1008.9
2017-08-25T10:17:26.618Z,1008.9
2017-08-25T10:18:28.261Z,1008.9
2017-08-25T10:19:29.906Z,1009.0
2017-08-25T10:20:31.545Z,1009.0
2017-08-25T10:21:33.184Z,1009.0
2017-08-25T10:22:34.836Z,1009.0
2017-08-25T10:23:36.474Z,1008.9
2017-08-25T10:24:38.116Z,1008.9
2017-08-25T10:25:39.762Z,1008.9
2017-08-25T10:26:41.402Z,1008.9
2017-08-25T10:27:43.042Z,1008.9
2017-08-25T10:28:44.683Z,1008.9
2017-08-25T10:29:46.335Z,1008.9
2017-08-25T10:30:47.977Z,1008.9
2017-08-25T10:31:49.620Z,1008.9
2017-08-25T10:32:51.260Z,1008.9
2017-08-25T10:33:52.909Z,1008.9
2017-08-25T10:34:54.560Z,1008.9
2017-08-25T10:35:56.203Z,1008.8
2017-08-25T10:36:57.839Z,1008.9
2017-08-25T10:37:59.487Z,1008.8
2017-08-25T10:39:01.130Z,1008.8
2017-08-25T10:40:02.767Z,1008.8
2017-08-25T10:41:04.406Z,1008.8
2017-08-25T10:42:06.058Z,1008.9
2017-08-25T10:43:07.709Z,1008.8
2017-08-25T10:44:09.350Z,1008.8
2017-08-25T10:45:10.995Z,1008.8
2017-08-25T10:46:12.638Z,1008.8
2017-08-25T10:47:14.284Z,1008.8
2017-08-25T10:48:15.921Z,1008.8
2017-08-25T10:49:17.566Z,1008.7
2017-08-25T10:50:19.216Z,1008.7
2017-08-25T10:51:20.851Z,1008.8
2017-08-25T10:52:22.498Z,1008.7
2017-08-25T10:53:24.132Z,1008.8
2017-08-25T10:54:25.783Z,1008.8
2017-08-25T10:55:27.425Z,1008.8
2017-08-25T10:56:29.068Z,1008.7
2017-08-25T10:57:30.717Z,1008.7
2017-08-25T10:58:32.354Z,1008.7
2017-08-25T10:59:33.999Z,1008.7
2017-08-25T11:00:35.650Z,1008.7
2017-08-25T11:01:37.285Z,1008.7
2017-08-25T11:02:38.925Z,1008.7
2017-08-25T11:03:40.566Z,1008.7
2017-08-25T11:04:42.218Z,1008.6
2017-08-25T11:05:43.863Z,1008.6
2017-08-25T11:06:45.501Z,1008.6
2017-08-25T11:07:47.156Z,1008.6
2017-08-25T11:08:48.799Z,1008.6
2017-08-25T11:09:50.438Z,1008.5
2017-08-25T11:10:52.080Z,1008.5
2017-08-25T11:11:53.717Z,1008.5
2017-08-25T11:12:55.371Z,1008.5
2017-08-25T11:13:57.013Z,1008.5
2017-08-25T11:14:58.658Z,1008.5
2017-08-25T11:16:00.304Z,1008.5
2017-08-25T11:17:01.947Z,1008.5
2017-08-25T11:18:03.597Z,1008.5
2017-08-25T11:19:05.233Z,1008.5
2017-08-25T11:20:06.872Z,1008.5
2017-08-25T11:21:08.516Z,1008.5
2017-08-25T11:22:10.170Z,1008.5
2017-08-25T11:23:11.801Z,1008.5
2017-08-25T11:24:13.443Z,1008.4
2017-08-25T11:25:15.090Z,1008.4
2017-08-25T11:26:16.733Z,1008.5
2017-08-25T11:27:18.371Z,1008.5
2017-08-25T11:28:20.022Z,1008.4
2017-08-25T11:29:21.664Z,1008.5
2017-08-25T11:30:23.310Z,1008.5
2017-08-25T11:31:24.943Z,1008.5
2017-08-25T11:32:26.580Z,1008.5
2017-08-25T11:33:28.231Z,1008.5
2017-08-25T11:34:29.875Z,1008.4
2017-08-25T11:35:31.512Z,1008.4
2017-08-25T11:36:33.151Z,1008.4
2017-08-25T11:37:34.799Z,1008.4
2017-08-25T11:38:36.440Z,1008.3
2017-08-25T11:39:38.077Z,1008.3
2017-08-25T11:40:39.717Z,1008.3
2017-08-25T11:41:41.360Z,1008.3
2017-08-25T11:42:43.006Z,1008.3
2017-08-25T11:43:44.647Z,1008.3
2017-08-25T11:44:46.287Z,1008.3
2017-08-25T11:45:47.934Z,1008.3
2017-08-25T11:46:49.572Z,1008.3
2017-08-25T11:47:51.208Z,1008.3
2017-08-25T11:48:52.849Z,1008.3
2017-08-25T11:49:54.493Z,1008.2
2017-08-25T11:50:56.143Z,1008.2
2017-08-25T11:51:57.778Z,1008.2
2017-08-25T11:52:59.414Z,1008.2
2017-08-25T11:54:01.057Z,1008.2
2017-08-25T11:55:02.712Z,1008.2
2017-08-25T11:56:04.347Z,1008.1
2017-08-25T11:57:05.983Z,1008.2
2017-08-25T11:58:07.634Z,1008.2
2017-08-25T11:59:09.273Z,1008.2
2017-08-25T12:00:10.906Z,1008.2
2017-08-25T12:01:12.554Z,1008.2
2017-08-25T12:02:14.188Z,1008.3
2017-08-25T12:03:15.826Z,1008.3
2017-08-25T12:04:17.470Z,1008.2
2017-08-25T12:05:19.105Z,1008.2
2017-08-25T12:06:20.738Z,1008.2
2017-08-25T12:07:22.373Z,1008.2
2017-08-25T12:08:24.022Z,1008.2
2017-08-25T12:09:25.662Z,1008.1
2017-08-25T12:10:27.297Z,1008.2
2017-08-25T12:11:28.935Z,1008.2
2017-08-25T12:12:30.581Z,1008.2
2017-08-25T12:13:32.217Z,1008.1
2017-08-25T12:14:33.852Z,1008.1
2017-08-25T12:15:35.497Z,1008.1
2017-08-25T12:16:37.135Z,1008.1
2017-08-25T12:17:38.776Z,1008.0
2017-08-25T12:18:40.409Z,1008.1
2017-08-25T12:19:42.049Z,1008.0
2017-08-25T12:20:43.693Z,1008.1
2017-08-25T12:21:45.334Z,1008.1
2017-08-25T12:22:46.972Z,1008.0
2017-08-25T12:23:48.603Z,1008.0
2017-08-25T12:24:50.244Z,1008.1
2017-08-25T12:25:51.892Z,1008.1
2017-08-25T12:26:53.526Z,1008.1
2017-08-25T12:27:55.159Z,1008.1
2017-08-25T12:28:56.800Z,1008.1
2017-08-25T12:29:58.428Z,1008.1
2017-08-25T12:31:00.066Z,1008.1
2017-08-25T12:32:01.699Z,1008.1
2017-08-25T12:33:03.346Z,1008.1
2017-08-25T12:34:04.980Z,1008.1
2017-08-25T12:35:06.624Z,1008.1
2017-08-25T12:36:08.256Z,1008.1
2017-08-25T12:37:09.892Z,1008.1
2017-08-25T12:38:11.527Z,1008.1
2017-08-25T12:39:13.167Z,1008.1
2017-08-25T12:40:14.811Z,1008.1
2017-08-25T12:41:16.444Z,1008.1
2017-08-25T12:42:18.079Z,1008.0
2017-08-25T12:43:19.715Z,1008.1
2017-08-25T12:44:21.348Z,1008.0
2017-08-25T12:45:22.981Z,1008.0
2017-08-25T12:46:24.614Z,1008.0
2017-08-25T12:47:26.261Z,1008.0
2017-08-25T12:48:27.899Z,1008.1